createdAt,value
2018-02-12T00:02:23.763Z,13.00
2018-02-12T00:04:52.478Z,13.00
2018-02-12T00:07:21.217Z,13.00
2018-02-12T00:09:49.561Z,13.00
2018-02-12T00:12:17.945Z,13.00
2018-02-12T00:14:46.334Z,13.00
2018-02-12T00:17:14.676Z,12.90
2018-02-12T00:19:43.423Z,12.90
2018-02-12T00:22:14.095Z,12.90
2018-02-12T00:24:42.851Z,12.90
2018-02-12T00:27:11.197Z,12.90
2018-02-12T00:29:39.543Z,12.90
2018-02-12T00:32:08.341Z,12.90
2018-02-12T00:34:37.010Z,12.90
2018-02-12T00:37:05.349Z,12.90
2018-02-12T00:39:33.722Z,12.90
2018-02-12T00:42:02.058Z,12.90
2018-02-12T00:44:30.770Z,12.80
2018-02-12T00:46:59.249Z,12.80
2018-02-12T00:49:27.604Z,12.80
2018-02-12T00:51:56.349Z,12.80
2018-02-12T00:54:24.731Z,12.80
2018-02-12T00:56:53.347Z,12.80
2018-02-12T00:59:22.089Z,12.80
2018-02-12T01:01:50.446Z,12.80
2018-02-12T01:04:18.767Z,12.80
2018-02-12T01:06:47.109Z,12.80
2018-02-12T01:09:15.471Z,12.80
2018-02-12T01:11:43.819Z,12.80
2018-02-12T01:14:12.531Z,12.70
2018-02-12T01:16:40.913Z,12.70
2018-02-12T01:19:09.263Z,12.70
2018-02-12T01:21:38.012Z,12.70
2018-02-12T01:24:06.504Z,12.70
2018-02-12T01:26:34.830Z,12.70
2018-02-12T01:29:03.182Z,12.70
2018-02-12T01:31:32.018Z,12.70
2018-02-12T01:34:00.653Z,12.70
2018-02-12T01:36:28.970Z,12.70
2018-02-12T01:38:57.331Z,12.70
2018-02-12T01:41:26.373Z,12.70
2018-02-12T01:43:54.723Z,12.70
2018-02-12T01:46:23.124Z,12.60
2018-02-12T01:48:51.447Z,12.60
2018-02-12T01:51:20.185Z,12.60
2018-02-12T01:53:49.021Z,12.60
2018-02-12T01:56:17.405Z,12.60
2018-02-12T01:58:46.117Z,12.60
2018-02-12T02:01:14.509Z,12.60
2018-02-12T02:03:42.838Z,12.60
2018-02-12T02:06:11.564Z,12.60
2018-02-12T02:08:40.203Z,12.60
2018-02-12T02:11:08.555Z,12.60
2018-02-12T02:13:36.875Z,12.60
2018-02-12T02:16:05.265Z,12.60
2018-02-12T02:18:33.917Z,12.60
2018-02-12T02:21:02.645Z,12.60
2018-02-12T02:23:31.393Z,12.60
2018-02-12T02:25:59.974Z,12.60
2018-02-12T02:28:28.665Z,12.50
2018-02-12T02:30:57.046Z,12.50
2018-02-12T02:33:25.793Z,12.50
2018-02-12T02:35:54.123Z,12.50
2018-02-12T02:38:22.882Z,12.50
2018-02-12T02:40:51.237Z,12.50
2018-02-12T02:43:19.563Z,12.50
2018-02-12T02:45:48.337Z,12.50
2018-02-12T02:48:16.914Z,12.50
2018-02-12T02:50:45.606Z,12.50
2018-02-12T02:53:13.994Z,12.50
2018-02-12T02:55:42.744Z,12.50
2018-02-12T02:58:11.166Z,12.50
2018-02-12T03:00:39.925Z,12.50
2018-02-12T03:03:08.242Z,12.50
2018-02-12T03:05:36.677Z,12.40
2018-02-12T03:08:05.029Z,12.40
2018-02-12T03:10:33.652Z,12.50
2018-02-12T03:13:02.022Z,12.40
2018-02-12T03:15:30.381Z,12.40
2018-02-12T03:17:58.772Z,12.40
2018-02-12T03:20:27.154Z,12.40
2018-02-12T03:22:55.503Z,12.40
2018-02-12T03:25:23.911Z,12.40
2018-02-12T03:27:52.266Z,12.40
2018-02-12T03:30:20.890Z,12.40
2018-02-12T03:32:49.234Z,12.40
2018-02-12T03:35:17.623Z,12.40
2018-02-12T03:37:46.043Z,12.40
2018-02-12T03:40:14.801Z,12.30
2018-02-12T03:42:43.606Z,12.30
2018-02-12T03:45:12.350Z,12.30
2018-02-12T03:47:40.666Z,12.30
2018-02-12T03:50:09.019Z,12.30
2018-02-12T03:52:37.339Z,12.30
2018-02-12T03:55:06.079Z,12.30
2018-02-12T03:57:34.417Z,12.30
2018-02-12T04:00:02.773Z,12.30
2018-02-12T04:02:31.566Z,12.30
2018-02-12T04:05:00.317Z,12.30
2018-02-12T04:07:28.790Z,12.30
2018-02-12T04:09:58.029Z,12.30
2018-02-12T04:12:26.953Z,12.30
2018-02-12T04:14:55.274Z,12.30
2018-02-12T04:17:23.639Z,12.30
2018-02-12T04:19:51.961Z,12.30
2018-02-12T04:22:20.705Z,12.20
2018-02-12T04:24:49.121Z,12.30
2018-02-12T04:27:17.846Z,12.20
2018-02-12T04:29:46.655Z,12.30
2018-02-12T04:32:15.026Z,12.30
2018-02-12T04:34:43.642Z,12.20
2018-02-12T04:37:12.002Z,12.20
2018-02-12T04:39:40.333Z,12.20
2018-02-12T04:42:08.657Z,12.20
2018-02-12T04:44:37.039Z,12.20
2018-02-12T04:47:05.421Z,12.20
2018-02-12T04:49:34.014Z,12.20
2018-02-12T04:52:02.342Z,12.20
2018-02-12T04:54:30.981Z,12.20
2018-02-12T04:56:59.711Z,12.20
2018-02-12T04:59:28.040Z,12.20
2018-02-12T05:01:56.363Z,12.20
2018-02-12T05:04:24.694Z,12.20
2018-02-12T05:06:53.167Z,12.20
2018-02-12T05:09:21.535Z,12.20
2018-02-12T05:11:49.862Z,12.20
2018-02-12T05:14:18.233Z,12.20
2018-02-12T05:16:46.664Z,12.20
2018-02-12T05:19:15.021Z,12.20
2018-02-12T05:21:43.387Z,12.20
2018-02-12T05:24:11.710Z,12.20
2018-02-12T05:26:40.053Z,12.20
2018-02-12T05:29:08.689Z,12.20
2018-02-12T05:31:37.412Z,12.20
2018-02-12T05:34:05.737Z,12.20
2018-02-12T05:36:34.533Z,12.20
2018-02-12T05:39:02.855Z,12.20
2018-02-12T05:41:31.215Z,12.20
2018-02-12T05:43:59.572Z,12.20
2018-02-12T05:46:28.368Z,12.20
2018-02-12T05:48:57.223Z,12.20
2018-02-12T05:51:25.598Z,12.20
2018-02-12T05:53:54.000Z,12.20
2018-02-12T05:56:22.345Z,12.20
2018-02-12T05:58:50.696Z,12.20
2018-02-12T06:01:19.081Z,12.20
2018-02-12T06:03:48.651Z,12.20
2018-02-12T06:06:17.407Z,12.20
2018-02-12T06:08:45.889Z,12.20
2018-02-12T06:11:14.214Z,12.20
2018-02-12T06:13:42.666Z,12.20
2018-02-12T06:16:11.129Z,12.20
2018-02-12T06:18:39.474Z,12.20
2018-02-12T06:21:07.884Z,12.20
2018-02-12T06:23:36.230Z,12.20
2018-02-12T06:26:04.587Z,12.30
2018-02-12T06:28:32.945Z,12.30
2018-02-12T06:31:01.400Z,12.30
2018-02-12T06:33:29.719Z,12.30
2018-02-12T06:35:58.086Z,12.30
2018-02-12T06:38:26.834Z,12.30
2018-02-12T06:40:55.208Z,12.30
2018-02-12T06:43:23.570Z,12.30
2018-02-12T06:45:51.921Z,12.30
2018-02-12T06:48:20.355Z,12.30
2018-02-12T06:50:48.697Z,12.30
2018-02-12T06:53:17.931Z,12.30
2018-02-12T06:55:46.310Z,12.30
2018-02-12T06:58:14.647Z,12.40
2018-02-12T07:00:42.999Z,12.30
2018-02-12T07:03:11.443Z,12.40
2018-02-12T07:05:39.781Z,12.40
2018-02-12T07:08:08.204Z,12.40
2018-02-12T07:10:36.567Z,12.40
2018-02-12T07:13:04.976Z,12.40
2018-02-12T07:15:34.457Z,12.40
2018-02-12T07:18:03.035Z,12.40
2018-02-12T07:20:31.643Z,12.40
2018-02-12T07:23:00.008Z,12.40
2018-02-12T07:25:28.342Z,12.40
2018-02-12T07:27:56.784Z,12.40
2018-02-12T07:30:25.118Z,12.40
2018-02-12T07:32:53.539Z,12.50
2018-02-12T07:35:21.901Z,12.50
2018-02-12T07:37:50.265Z,12.50
2018-02-12T07:40:18.847Z,12.50
2018-02-12T07:42:47.279Z,12.50
2018-02-12T07:45:15.644Z,12.60
2018-02-12T07:47:44.397Z,12.60
2018-02-12T07:50:14.420Z,12.60
2018-02-12T07:52:43.282Z,12.70
2018-02-12T07:55:11.680Z,12.70
2018-02-12T07:57:40.027Z,12.70
2018-02-12T08:00:08.374Z,12.80
2018-02-12T08:02:36.756Z,12.90
2018-02-12T08:05:05.634Z,13.00
2018-02-12T08:07:33.961Z,13.00
2018-02-12T08:10:02.332Z,13.00
2018-02-12T08:12:30.680Z,13.00
2018-02-12T08:14:59.430Z,13.10
2018-02-12T08:17:27.782Z,13.10
2018-02-12T08:19:56.831Z,13.10
2018-02-12T08:22:25.546Z,13.10
2018-02-12T08:24:53.940Z,13.20
2018-02-12T08:27:22.458Z,13.20
2018-02-12T08:29:50.838Z,13.20
2018-02-12T08:32:19.192Z,13.30
2018-02-12T08:34:47.557Z,13.30
2018-02-12T08:37:15.907Z,13.40
2018-02-12T08:39:44.728Z,13.40
2018-02-12T08:42:13.118Z,13.40
2018-02-12T08:44:41.513Z,13.40
2018-02-12T08:47:09.861Z,13.40
2018-02-12T08:49:38.210Z,13.40
2018-02-12T08:52:06.954Z,13.30
2018-02-12T08:54:35.376Z,13.30
2018-02-12T08:57:04.840Z,13.30
2018-02-12T08:59:34.088Z,13.30
2018-02-12T09:02:02.750Z,13.30
2018-02-12T09:04:31.331Z,13.30
2018-02-12T09:06:59.697Z,13.30
2018-02-12T09:09:28.045Z,13.40
2018-02-12T09:11:56.778Z,13.40
2018-02-12T09:14:25.120Z,13.40
2018-02-12T09:16:53.441Z,13.40
2018-02-12T09:19:22.174Z,13.40
2018-02-12T09:21:50.507Z,13.40
2018-02-12T09:24:19.265Z,13.40
2018-02-12T09:26:48.041Z,13.40
2018-02-12T09:29:16.423Z,13.40
2018-02-12T09:31:44.768Z,13.50
2018-02-12T09:34:13.406Z,13.40
2018-02-12T09:36:41.765Z,13.40
2018-02-12T09:39:10.366Z,13.40
2018-02-12T09:41:38.726Z,13.50
2018-02-12T09:44:07.433Z,13.50
2018-02-12T09:46:35.834Z,13.50
2018-02-12T09:49:04.374Z,13.50
2018-02-12T09:51:33.086Z,13.50
2018-02-12T09:54:01.982Z,13.50
2018-02-12T09:56:30.837Z,13.60
2018-02-12T09:58:59.154Z,13.60
2018-02-12T10:01:28.049Z,13.60
2018-02-12T10:03:56.822Z,13.70
2018-02-12T10:06:25.206Z,13.70
2018-02-12T10:08:54.061Z,13.80
2018-02-12T10:11:22.389Z,13.80
2018-02-12T10:13:50.746Z,13.90
2018-02-12T10:16:19.513Z,14.20
2018-02-12T10:18:48.110Z,14.20
2018-02-12T10:21:16.465Z,14.30
2018-02-12T10:23:44.822Z,14.40
2018-02-12T10:26:13.519Z,14.60
2018-02-12T10:28:41.861Z,14.70
2018-02-12T10:31:10.206Z,14.80
2018-02-12T10:33:38.575Z,14.90
2018-02-12T10:36:06.978Z,14.90
2018-02-12T10:38:35.703Z,14.90
2018-02-12T10:41:04.062Z,14.90
2018-02-12T10:43:32.458Z,14.80
2018-02-12T10:46:00.794Z,14.80
2018-02-12T10:48:29.539Z,14.80
2018-02-12T10:50:57.901Z,14.80
2018-02-12T10:53:26.282Z,14.70
2018-02-12T10:55:54.668Z,14.60
2018-02-12T10:58:23.017Z,14.60
2018-02-12T11:00:52.216Z,14.60
2018-02-12T11:03:20.558Z,14.50
2018-02-12T11:05:48.899Z,14.50
2018-02-12T11:08:17.584Z,14.50
2018-02-12T11:10:45.940Z,14.40
2018-02-12T11:13:14.298Z,14.40
2018-02-12T11:15:42.723Z,14.40
2018-02-12T11:18:11.098Z,14.40
2018-02-12T11:20:39.487Z,14.40
2018-02-12T11:23:08.081Z,14.40
2018-02-12T11:25:36.690Z,14.40
2018-02-12T11:28:05.142Z,14.60
2018-02-12T11:30:33.470Z,14.80
2018-02-12T11:33:01.829Z,15.10
2018-02-12T11:35:30.294Z,15.50
2018-02-12T11:37:59.092Z,16.10
2018-02-12T11:40:27.953Z,16.40
2018-02-12T11:42:56.327Z,16.40
2018-02-12T11:45:24.665Z,16.70
2018-02-12T11:47:53.010Z,17.10
2018-02-12T11:50:21.379Z,17.40
2018-02-12T11:52:49.858Z,17.60
2018-02-12T11:55:18.327Z,17.90
2018-02-12T11:57:46.711Z,18.00
2018-02-12T12:00:15.334Z,18.20
2018-02-12T12:02:44.692Z,18.60
2018-02-12T12:05:13.372Z,18.50
2018-02-12T12:07:41.733Z,18.80
2018-02-12T12:10:10.134Z,19.20
2018-02-12T12:12:38.461Z,19.70
2018-02-12T12:15:06.829Z,20.20
2018-02-12T12:17:35.365Z,20.70
2018-02-12T12:20:04.158Z,21.10
2018-02-12T12:22:32.870Z,21.50
2018-02-12T12:25:01.450Z,22.00
2018-02-12T12:27:29.806Z,22.30
2018-02-12T12:29:58.198Z,22.80
2018-02-12T12:32:26.789Z,23.20
2018-02-12T12:34:55.110Z,23.50
2018-02-12T12:37:23.477Z,23.80
2018-02-12T12:39:51.869Z,24.10
2018-02-12T12:42:20.233Z,24.30
2018-02-12T12:44:48.595Z,24.60
2018-02-12T12:47:17.392Z,24.90
2018-02-12T12:49:45.757Z,24.90
2018-02-12T12:52:14.524Z,25.00
2018-02-12T12:54:42.933Z,25.10
2018-02-12T12:57:11.671Z,24.90
2018-02-12T12:59:40.290Z,24.90
2018-02-12T13:02:09.387Z,24.50
2018-02-12T13:04:38.478Z,24.20
2018-02-12T13:07:07.344Z,23.80
2018-02-12T13:09:35.713Z,23.80
2018-02-12T13:12:04.205Z,23.40
2018-02-12T13:14:32.975Z,23.00
2018-02-12T13:17:01.346Z,22.60
2018-02-12T13:19:29.697Z,22.20
2018-02-12T13:21:58.538Z,21.90
2018-02-12T13:24:26.874Z,21.90
2018-02-12T13:26:55.221Z,21.80
2018-02-12T13:29:24.154Z,21.80
2018-02-12T13:31:52.495Z,21.80
2018-02-12T13:34:21.577Z,21.70
2018-02-12T13:36:50.427Z,21.60
2018-02-12T13:39:18.784Z,21.60
2018-02-12T13:41:47.121Z,21.40
2018-02-12T13:44:15.478Z,21.20
2018-02-12T13:46:43.839Z,20.90
2018-02-12T13:49:12.281Z,20.70
2018-02-12T13:51:40.645Z,20.40
2018-02-12T13:54:09.615Z,20.40
2018-02-12T13:56:37.958Z,20.40
2018-02-12T13:59:07.250Z,20.60
2018-02-12T14:01:35.646Z,20.80
2018-02-12T14:04:04.039Z,21.00
2018-02-12T14:06:32.755Z,21.20
2018-02-12T14:09:01.403Z,21.50
2018-02-12T14:11:30.197Z,21.90
2018-02-12T14:13:58.811Z,21.90
2018-02-12T14:16:27.265Z,22.00
2018-02-12T14:18:55.764Z,22.20
2018-02-12T14:21:24.124Z,22.20
2018-02-12T14:23:52.470Z,22.10
2018-02-12T14:26:20.983Z,21.80
2018-02-12T14:28:49.392Z,21.50
2018-02-12T14:31:17.736Z,21.30
2018-02-12T14:33:46.351Z,21.10
2018-02-12T14:36:14.702Z,21.10
2018-02-12T14:38:43.059Z,21.20
2018-02-12T14:41:11.452Z,21.20
2018-02-12T14:43:39.824Z,21.20
2018-02-12T14:46:08.187Z,21.40
2018-02-12T14:48:36.822Z,21.40
2018-02-12T14:51:05.217Z,21.40
2018-02-12T14:53:33.761Z,21.40
2018-02-12T14:56:02.125Z,21.40
2018-02-12T14:58:30.510Z,21.40
2018-02-12T15:00:58.846Z,21.30
2018-02-12T15:03:27.225Z,21.20
2018-02-12T15:05:55.621Z,20.90
2018-02-12T15:08:23.950Z,20.70
2018-02-12T15:10:52.333Z,20.20
2018-02-12T15:13:21.147Z,19.80
2018-02-12T15:15:49.580Z,19.80
2018-02-12T15:18:18.642Z,19.60
2018-02-12T15:20:47.058Z,19.40
2018-02-12T15:23:15.454Z,19.30
2018-02-12T15:25:43.805Z,19.20
2018-02-12T15:28:12.167Z,19.10
2018-02-12T15:30:40.647Z,19.10
2018-02-12T15:33:09.011Z,18.90
2018-02-12T15:35:37.391Z,18.80
2018-02-12T15:38:05.770Z,18.80
2018-02-12T15:40:34.411Z,18.70
2018-02-12T15:43:03.158Z,18.40
2018-02-12T15:45:31.506Z,18.40
2018-02-12T15:47:59.886Z,18.20
2018-02-12T15:50:28.227Z,18.00
2018-02-12T15:52:56.616Z,17.90
2018-02-12T15:55:25.295Z,17.70
2018-02-12T15:57:54.060Z,17.40
2018-02-12T16:00:22.406Z,17.40
2018-02-12T16:02:50.762Z,17.20
2018-02-12T16:05:19.125Z,17.00
2018-02-12T16:07:48.722Z,16.70
2018-02-12T16:10:17.085Z,16.70
2018-02-12T16:12:45.438Z,16.50
2018-02-12T16:15:14.163Z,16.30
2018-02-12T16:17:42.909Z,16.10
2018-02-12T16:20:11.298Z,16.10
2018-02-12T16:22:39.633Z,15.90
2018-02-12T16:25:08.031Z,15.70
2018-02-12T16:27:36.570Z,15.70
2018-02-12T16:30:05.325Z,15.50
2018-02-12T16:32:33.732Z,15.50
2018-02-12T16:35:02.094Z,15.40
2018-02-12T16:37:30.441Z,15.40
2018-02-12T16:39:58.821Z,15.30
2018-02-12T16:42:27.225Z,15.30
2018-02-12T16:44:55.586Z,15.20
2018-02-12T16:47:23.967Z,15.20
2018-02-12T16:49:52.326Z,15.10
2018-02-12T16:52:20.723Z,15.10
2018-02-12T16:54:49.082Z,15.10
2018-02-12T16:57:17.517Z,15.10
2018-02-12T16:59:45.903Z,15.00
2018-02-12T17:02:14.666Z,14.90
2018-02-12T17:04:43.690Z,14.80
2018-02-12T17:07:12.450Z,14.80
2018-02-12T17:09:41.057Z,14.80
2018-02-12T17:12:09.504Z,14.80
2018-02-12T17:14:37.836Z,14.70
2018-02-12T17:17:06.212Z,14.60
2018-02-12T17:19:34.613Z,14.60
2018-02-12T17:22:02.957Z,14.50
2018-02-12T17:24:31.364Z,14.50
2018-02-12T17:26:59.790Z,14.40
2018-02-12T17:29:29.841Z,14.30
2018-02-12T17:31:58.780Z,14.30
2018-02-12T17:34:28.148Z,14.20
2018-02-12T17:36:57.081Z,14.20
2018-02-12T17:39:26.000Z,14.20
2018-02-12T17:41:54.859Z,14.10
2018-02-12T17:44:23.627Z,14.10
2018-02-12T17:46:52.043Z,14.00
2018-02-12T17:49:20.810Z,14.00
2018-02-12T17:51:49.154Z,13.90
2018-02-12T17:54:17.578Z,13.90
2018-02-12T17:56:45.969Z,13.80
2018-02-12T17:59:15.112Z,13.80
2018-02-12T18:01:44.089Z,13.70
2018-02-12T18:04:13.277Z,13.70
2018-02-12T18:06:42.918Z,13.60
2018-02-12T18:09:12.000Z,13.50
2018-02-12T18:11:40.438Z,13.50
2018-02-12T18:14:08.911Z,13.40
2018-02-12T18:16:37.306Z,13.40
2018-02-12T18:19:06.965Z,13.40
2018-02-12T18:21:35.416Z,13.40
2018-02-12T18:24:04.058Z,13.40
2018-02-12T18:26:32.533Z,13.40
2018-02-12T18:29:01.325Z,13.30
2018-02-12T18:31:30.314Z,13.20
2018-02-12T18:33:59.478Z,13.20
2018-02-12T18:36:28.264Z,13.10
2018-02-12T18:38:56.752Z,13.00
2018-02-12T18:41:26.330Z,12.90
2018-02-12T18:43:55.391Z,13.00
2018-02-12T18:46:24.241Z,12.90
2018-02-12T18:48:52.640Z,13.00
2018-02-12T18:51:20.976Z,12.90
2018-02-12T18:53:49.466Z,12.90
2018-02-12T18:56:17.863Z,12.90
2018-02-12T18:58:46.894Z,12.90
2018-02-12T19:01:15.269Z,12.90
2018-02-12T19:03:43.673Z,12.80
2018-02-12T19:06:12.185Z,12.80
2018-02-12T19:08:40.567Z,12.80
2018-02-12T19:11:08.949Z,12.80
2018-02-12T19:13:38.255Z,12.80
2018-02-12T19:16:06.631Z,12.80
2018-02-12T19:18:35.076Z,12.90
2018-02-12T19:21:03.658Z,13.00
2018-02-12T19:23:32.447Z,13.10
2018-02-12T19:26:00.865Z,13.10
2018-02-12T19:28:29.225Z,13.20
2018-02-12T19:30:57.656Z,13.30
2018-02-12T19:33:26.094Z,13.30
2018-02-12T19:35:54.506Z,13.40
2018-02-12T19:38:22.902Z,13.40
2018-02-12T19:40:52.024Z,13.40
2018-02-12T19:43:20.891Z,13.50
2018-02-12T19:45:49.715Z,13.50
2018-02-12T19:48:18.169Z,13.50
2018-02-12T19:50:46.924Z,13.60
2018-02-12T19:53:15.323Z,13.60
2018-02-12T19:55:44.122Z,13.60
2018-02-12T19:58:12.918Z,13.60
2018-02-12T20:00:41.694Z,13.60
2018-02-12T20:03:10.557Z,13.60
2018-02-12T20:05:38.930Z,13.60
2018-02-12T20:08:07.298Z,13.60
2018-02-12T20:10:35.869Z,13.60
2018-02-12T20:13:04.505Z,13.60
2018-02-12T20:15:33.742Z,13.60
2018-02-12T20:18:02.134Z,13.60
2018-02-12T20:20:30.476Z,13.60
2018-02-12T20:22:59.210Z,13.60
2018-02-12T20:25:27.603Z,13.60
2018-02-12T20:27:55.923Z,13.60
2018-02-12T20:30:25.199Z,13.60
2018-02-12T20:32:53.562Z,13.60
2018-02-12T20:35:21.898Z,13.60
2018-02-12T20:37:50.547Z,13.60
2018-02-12T20:40:19.301Z,13.60
2018-02-12T20:42:47.661Z,13.60
2018-02-12T20:45:16.045Z,13.50
2018-02-12T20:47:44.394Z,13.60
2018-02-12T20:50:12.755Z,13.60
2018-02-12T20:52:41.230Z,13.60
2018-02-12T20:55:09.718Z,13.60
2018-02-12T20:57:38.558Z,13.60
2018-02-12T21:00:07.048Z,13.60
2018-02-12T21:02:35.658Z,13.60
2018-02-12T21:05:04.416Z,13.60
2018-02-12T21:07:32.819Z,13.60
2018-02-12T21:10:01.166Z,13.50
2018-02-12T21:12:29.555Z,13.50
2018-02-12T21:14:57.908Z,13.50
2018-02-12T21:17:26.786Z,13.50
2018-02-12T21:19:55.157Z,13.50
2018-02-12T21:22:24.807Z,13.50
2018-02-12T21:24:53.231Z,13.50
2018-02-12T21:27:21.967Z,13.50
2018-02-12T21:29:50.432Z,13.50
2018-02-12T21:32:18.854Z,13.50
2018-02-12T21:34:47.251Z,13.50
2018-02-12T21:37:15.645Z,13.50
2018-02-12T21:39:44.482Z,13.50
2018-02-12T21:42:12.837Z,13.50
2018-02-12T21:44:41.204Z,13.50
2018-02-12T21:47:09.587Z,13.50
2018-02-12T21:49:37.966Z,13.40
2018-02-12T21:52:06.304Z,13.40
2018-02-12T21:54:35.091Z,13.40
2018-02-12T21:57:03.830Z,13.40
2018-02-12T21:59:32.169Z,13.40
2018-02-12T22:02:00.543Z,13.40
2018-02-12T22:04:29.910Z,13.40
2018-02-12T22:06:58.750Z,13.40
2018-02-12T22:09:27.121Z,13.40
2018-02-12T22:11:55.532Z,13.40
2018-02-12T22:14:23.955Z,13.40
2018-02-12T22:16:52.733Z,13.40
2018-02-12T22:19:21.159Z,13.40
2018-02-12T22:21:49.546Z,13.40
2018-02-12T22:24:17.990Z,13.40
2018-02-12T22:26:46.763Z,13.30
2018-02-12T22:29:15.138Z,13.40
2018-02-12T22:31:43.550Z,13.30
2018-02-12T22:34:11.942Z,13.30
2018-02-12T22:36:40.595Z,13.30
2018-02-12T22:39:09.574Z,13.30
2018-02-12T22:41:38.651Z,13.30
2018-02-12T22:44:07.166Z,13.30
2018-02-12T22:46:36.037Z,13.20
2018-02-12T22:49:04.621Z,13.20
2018-02-12T22:51:33.063Z,13.20
2018-02-12T22:54:01.445Z,13.20
2018-02-12T22:56:29.935Z,13.20
2018-02-12T22:58:58.343Z,13.20
2018-02-12T23:01:27.667Z,13.20
2018-02-12T23:03:56.242Z,13.20
2018-02-12T23:06:25.045Z,13.20
2018-02-12T23:08:53.806Z,13.10
2018-02-12T23:11:22.199Z,13.20
2018-02-12T23:13:51.002Z,13.10
2018-02-12T23:16:19.382Z,13.10
2018-02-12T23:18:47.760Z,13.10
2018-02-12T23:21:16.132Z,13.10
2018-02-12T23:23:44.930Z,13.10
2018-02-12T23:26:13.455Z,13.10
2018-02-12T23:28:41.822Z,13.10
2018-02-12T23:31:10.322Z,13.10
2018-02-12T23:33:39.034Z,13.10
2018-02-12T23:36:07.519Z,13.10
2018-02-12T23:38:36.606Z,13.10
2018-02-12T23:41:05.364Z,13.00
2018-02-12T23:43:33.993Z,13.00
2018-02-12T23:46:02.336Z,13.00
2018-02-12T23:48:30.724Z,13.00
2018-02-12T23:50:59.462Z,13.00
2018-02-12T23:53:27.876Z,13.00
2018-02-12T23:55:56.258Z,13.00
2018-02-12T23:58:24.603Z,13.00
